Time;durP1;ratioP1;P1;durP2;ratioP2;P2;SDS_P1;SDS_P2;PMS_P1;PMS_P2;Temp;Humidity;BMP_temperature;BMP_pressure;BME280_temperature;BME280_humidity;BME280_pressure;Samples;Min_cycle;Max_cycle;Signal;HPM_P1;HPM_P2
2021/03/05 00:00:02;;;;;;;18.35;3.03;;;-1.50;99.90;;;;;;4912410;28;20117;-80
2021/03/05 00:02:25;;;;;;;10.13;4.18;;;-1.50;99.90;;;;;;4916079;28;20091;-79
2021/03/05 00:04:47;;;;;;;11.75;3.85;;;-1.60;99.90;;;;;;4916496;28;20703;-79
2021/03/05 00:07:11;;;;;;;10.15;4.28;;;-1.50;99.90;;;;;;4913457;28;20187;-79
2021/03/05 00:09:33;;;;;;;9.77;4.40;;;-1.50;99.90;;;;;;4912974;28;20108;-80
2021/03/05 00:11:56;;;;;;;9.10;3.80;;;-1.50;99.90;;;;;;4913982;28;20081;-80
2021/03/05 00:14:18;;;;;;;8.50;4.70;;;-1.60;99.90;;;;;;4915610;28;20087;-80
2021/03/05 00:16:41;;;;;;;15.45;5.03;;;-1.60;99.90;;;;;;4915573;28;20455;-80
2021/03/05 00:19:04;;;;;;;8.80;4.07;;;-1.50;99.90;;;;;;4915046;28;20098;-80
2021/03/05 00:21:26;;;;;;;11.68;4.95;;;-1.60;99.90;;;;;;4913539;28;20094;-80
2021/03/05 00:23:50;;;;;;;10.30;4.45;;;;;;;;;;4916139;28;20096;-80
2021/03/05 00:26:12;;;;;;;17.75;6.10;;;0.40;99.90;;;;;;4914478;28;20548;-80
2021/03/05 00:28:35;;;;;;;12.95;5.63;;;-1.40;99.90;;;;;;4913432;28;20115;-79
2021/03/05 00:30:58;;;;;;;14.07;5.40;;;-1.50;99.90;;;;;;4911373;28;20090;-79
2021/03/05 00:33:20;;;;;;;17.65;5.53;;;-1.60;99.90;;;;;;4917482;28;20151;-79
2021/03/05 00:35:43;;;;;;;11.88;5.40;;;-1.70;99.90;;;;;;4917683;28;20087;-79
2021/03/05 00:38:05;;;;;;;9.82;4.85;;;-1.70;99.90;;;;;;4923819;28;21085;-80
2021/03/05 00:40:29;;;;;;;14.30;5.35;;;-1.80;99.90;;;;;;4914395;28;20090;-79
2021/03/05 00:42:52;;;;;;;9.93;4.85;;;-1.90;99.90;;;;;;4912292;28;20088;-79
2021/03/05 00:45:17;;;;;;;11.63;4.45;;;-2.00;99.90;;;;;;4912685;28;20092;-78
2021/03/05 00:47:39;;;;;;;10.10;4.75;;;-2.10;99.90;;;;;;4913605;28;20096;-79
2021/03/05 00:50:02;;;;;;;11.10;4.97;;;-2.20;99.90;;;;;;4917770;28;20097;-79
2021/03/05 00:52:25;;;;;;;16.92;4.90;;;-2.10;99.90;;;;;;4917619;28;20098;-79
2021/03/05 00:54:47;;;;;;;8.32;3.95;;;-2.00;99.90;;;;;;4919787;28;20089;-78
2021/03/05 00:57:11;;;;;;;14.05;4.68;;;-2.10;99.90;;;;;;4922517;28;20104;-79
2021/03/05 00:59:33;;;;;;;11.90;4.60;;;-2.10;99.90;;;;;;4918601;28;20096;-78
2021/03/05 01:01:56;;;;;;;9.57;4.90;;;-2.20;99.90;;;;;;4917761;28;20103;-79
2021/03/05 01:04:19;;;;;;;12.35;4.63;;;-2.20;99.90;;;;;;4920755;28;20169;-80
2021/03/05 01:06:41;;;;;;;8.48;4.43;;;-1.90;99.90;;;;;;4916864;28;20116;-78
2021/03/05 01:09:05;;;;;;;10.35;4.32;;;-3.40;99.90;;;;;;4921129;28;20104;-78
2021/03/05 01:11:27;;;;;;;10.32;4.75;;;-2.30;99.90;;;;;;4919605;28;20364;-77
2021/03/05 01:13:51;;;;;;;41.97;4.35;;;-2.30;99.90;;;;;;4921465;28;20134;-77
2021/03/05 01:16:13;;;;;;;8.30;3.83;;;-2.50;99.90;;;;;;4918262;28;20168;-78
2021/03/05 01:18:36;;;;;;;11.00;4.00;;;-2.60;99.90;;;;;;4917640;28;20104;-78
2021/03/05 01:20:59;;;;;;;8.82;4.43;;;-2.60;99.90;;;;;;4920702;28;20088;-78
2021/03/05 01:23:22;;;;;;;11.02;5.10;;;-2.60;99.90;;;;;;4920838;28;20094;-77
2021/03/05 01:25:45;;;;;;;10.43;4.38;;;-2.70;99.90;;;;;;4921803;28;20104;-78
2021/03/05 01:28:07;;;;;;;14.50;4.85;;;-2.70;99.90;;;;;;4921601;28;20093;-78
2021/03/05 01:30:31;;;;;;;15.15;4.70;;;-2.60;99.90;;;;;;4914505;28;20089;-78
2021/03/05 01:32:54;;;;;;;11.80;4.93;;;-2.60;99.90;;;;;;4919485;28;20104;-78
2021/03/05 01:35:32;;;;;;;13.93;5.20;;;-2.60;99.90;;;;;;4914774;28;20100;-78
2021/03/05 01:37:57;;;;;;;9.95;4.43;;;-2.60;99.90;;;;;;4916437;28;20090;-78
2021/03/05 01:40:25;;;;;;;12.73;4.93;;;-2.40;99.90;;;;;;4916677;28;20096;-77
2021/03/05 01:42:48;;;;;;;11.93;5.60;;;-2.40;99.90;;;;;;4917091;28;20096;-78
2021/03/05 01:45:13;;;;;;;11.05;5.00;;;-2.40;99.90;;;;;;4917458;28;20106;-78
2021/03/05 01:47:36;;;;;;;12.75;5.03;;;-2.40;99.90;;;;;;4914683;28;20128;-78
2021/03/05 01:49:59;;;;;;;15.60;5.85;;;-2.40;99.90;;;;;;4918983;28;20582;-78
2021/03/05 01:52:22;;;;;;;13.10;4.88;;;-2.40;99.90;;;;;;4916213;28;20089;-78
2021/03/05 01:54:44;;;;;;;12.95;5.55;;;-2.40;99.90;;;;;;4913467;28;20100;-78
2021/03/05 01:57:07;;;;;;;11.45;5.07;;;-2.40;99.90;;;;;;4916922;28;20094;-77
2021/03/05 01:59:32;;;;;;;14.43;4.50;;;-2.50;99.90;;;;;;4916031;28;20096;-77
2021/03/05 02:01:58;;;;;;;11.50;4.60;;;-2.60;99.90;;;;;;4917681;28;20089;-77
2021/03/05 02:04:21;;;;;;;12.32;4.82;;;-2.80;99.90;;;;;;4917715;28;20100;-77
2021/03/05 02:06:44;;;;;;;17.08;5.00;;;-2.90;99.90;;;;;;4915421;28;20179;-77
2021/03/05 02:09:08;;;;;;;14.98;5.55;;;-3.00;99.90;;;;;;4917554;28;20092;-77
2021/03/05 02:11:31;;;;;;;9.60;4.40;;;-3.10;99.90;;;;;;4922310;28;20146;-77
2021/03/05 02:13:55;;;;;;;11.45;5.03;;;-3.10;99.90;;;;;;4912248;28;20111;-76
2021/03/05 02:16:34;;;;;;;13.07;4.10;;;-3.10;99.90;;;;;;4915297;28;20090;-77
2021/03/05 02:19:05;;;;;;;11.77;4.93;;;-2.90;99.90;;;;;;4914571;28;20105;-77
2021/03/05 02:22:11;;;;;;;8.23;4.10;;;-2.90;99.90;;;;;;4913647;28;20089;-78
2021/03/05 02:25:14;;;;;;;6.28;3.28;;;-2.90;99.90;;;;;;4916541;28;20456;-78
2021/03/05 02:28:00;;;;;;;9.65;3.92;;;-2.90;99.90;;;;;;4895162;28;20090;-77
2021/03/05 02:30:49;;;;;;;10.48;3.17;;;-2.90;99.90;;;;;;4916255;28;20086;-77
2021/03/05 02:33:20;;;;;;;12.38;2.75;;;-2.80;99.90;;;;;;4914088;27;20098;-77
2021/03/05 02:35:45;;;;;;;10.20;3.42;;;-1.60;99.90;;;;;;4919832;28;20101;-78
2021/03/05 02:38:11;;;;;;;9.05;3.47;;;-2.60;99.90;;;;;;4919330;28;20091;-78
2021/03/05 02:40:38;;;;;;;8.23;3.30;;;-2.60;99.90;;;;;;4915005;28;20105;-77
2021/03/05 02:43:05;;;;;;;10.15;3.40;;;-2.60;99.90;;;;;;4912500;28;20093;-77
2021/03/05 02:45:55;;;;;;;6.00;3.30;;;-2.60;99.90;;;;;;4917222;28;20155;-77
2021/03/05 02:48:23;;;;;;;6.97;3.10;;;-2.50;99.90;;;;;;4916767;28;20127;-77
2021/03/05 02:50:50;;;;;;;6.32;3.00;;;-2.30;99.90;;;;;;4912717;28;20523;-78
2021/03/05 02:53:16;;;;;;;10.85;3.00;;;-2.20;99.90;;;;;;4915788;28;20123;-77
2021/03/05 02:55:49;;;;;;;8.40;2.50;;;-2.30;99.90;;;;;;4918444;28;20580;-78
2021/03/05 02:58:15;;;;;;;8.80;3.00;;;-2.40;99.90;;;;;;4914319;28;20110;-78
2021/03/05 03:00:39;;;;;;;6.13;2.75;;;-2.30;99.90;;;;;;4912793;28;20534;-78
2021/03/05 03:03:03;;;;;;;6.45;2.78;;;-2.30;99.90;;;;;;4915382;28;20468;-78
2021/03/05 03:05:29;;;;;;;10.30;3.35;;;-2.30;99.90;;;;;;4913406;28;20103;-77
2021/03/05 03:07:53;;;;;;;7.03;2.40;;;-2.30;99.90;;;;;;4913023;28;20120;-78
2021/03/05 03:10:17;;;;;;;6.90;2.55;;;-2.40;99.90;;;;;;4913325;28;20131;-77
2021/03/05 03:12:43;;;;;;;9.38;2.63;;;-2.40;99.90;;;;;;4912393;28;20556;-78
2021/03/05 03:15:09;;;;;;;14.27;2.92;;;-2.50;99.90;;;;;;4909057;28;20192;-77
2021/03/05 03:17:32;;;;;;;7.65;2.38;;;-2.50;99.90;;;;;;4912280;28;20086;-78
2021/03/05 03:19:56;;;;;;;7.28;2.22;;;-2.50;99.90;;;;;;4913909;28;20089;-78
2021/03/05 03:22:19;;;;;;;6.38;2.30;;;-2.60;99.90;;;;;;4913207;28;20094;-78
2021/03/05 03:24:42;;;;;;;4.40;2.33;;;-2.60;99.90;;;;;;4914524;28;20092;-77
2021/03/05 03:27:05;;;;;;;4.65;2.30;;;-2.70;99.90;;;;;;4916287;28;20095;-78
2021/03/05 03:29:28;;;;;;;7.03;2.10;;;-2.70;99.90;;;;;;4911797;28;20805;-78
2021/03/05 03:31:51;;;;;;;7.70;1.88;;;-2.60;99.90;;;;;;4916538;28;20085;-78
2021/03/05 03:34:14;;;;;;;4.65;2.03;;;-2.30;99.90;;;;;;4919990;28;20098;-77
2021/03/05 03:36:39;;;;;;;7.38;1.73;;;-2.10;99.90;;;;;;4915822;28;20169;-77
2021/03/05 03:39:04;;;;;;;14.98;2.38;;;-1.90;99.90;;;;;;4912797;28;20461;-77
2021/03/05 03:41:26;;;;;;;;;;;-2.00;99.90;;;;;;4911504;27;20094;-77
2021/03/05 03:43:49;;;;;;;9.68;2.10;;;-1.80;99.90;;;;;;4912084;28;19970;-78
2021/03/05 03:46:12;;;;;;;7.80;2.10;;;-1.80;99.90;;;;;;4914121;28;20084;-77
2021/03/05 03:48:43;;;;;;;9.77;2.38;;;-1.80;99.90;;;;;;4915722;28;20479;-78
2021/03/05 03:51:09;;;;;;;7.72;2.10;;;-1.80;99.90;;;;;;4911452;28;20100;-79
2021/03/05 03:53:39;;;;;;;4.40;2.17;;;-1.80;99.90;;;;;;4908808;28;20539;-78
2021/03/05 03:56:06;;;;;;;10.50;1.83;;;-1.90;99.90;;;;;;4914756;28;20238;-78
2021/03/05 03:58:30;;;;;;;7.10;1.80;;;-2.00;99.90;;;;;;4912059;28;20461;-78
2021/03/05 04:00:59;;;;;;;5.38;2.35;;;-2.00;99.90;;;;;;4909059;28;20098;-78
2021/03/05 04:03:26;;;;;;;11.07;1.77;;;-2.10;99.90;;;;;;4911080;28;20090;-78
2021/03/05 04:05:51;;;;;;;5.68;1.88;;;-2.10;99.90;;;;;;4911055;28;20095;-78
2021/03/05 04:08:15;;;;;;;4.72;1.63;;;-2.00;99.90;;;;;;4917880;28;20495;-78
2021/03/05 04:10:41;;;;;;;3.88;1.70;;;-2.00;99.90;;;;;;4909281;28;20615;-78
2021/03/05 04:13:06;;;;;;;5.35;1.75;;;-1.90;99.90;;;;;;4914225;28;20460;-78
2021/03/05 04:15:30;;;;;;;8.15;2.08;;;-1.90;99.90;;;;;;4912459;28;20088;-77
2021/03/05 04:17:52;;;;;;;3.85;1.55;;;-1.90;99.90;;;;;;4913856;28;20138;-78
2021/03/05 04:20:17;;;;;;;4.28;1.08;;;-1.90;99.90;;;;;;4908546;28;20103;-78
2021/03/05 04:22:42;;;;;;;1.88;1.10;;;-2.00;99.90;;;;;;4914662;28;20611;-78
2021/03/05 04:25:06;;;;;;;2.23;1.10;;;-2.00;99.90;;;;;;4916145;28;20100;-79
2021/03/05 04:27:28;;;;;;;2.38;1.25;;;-2.00;99.90;;;;;;4910363;28;20171;-78
2021/03/05 04:29:52;;;;;;;2.70;1.30;;;-2.00;99.90;;;;;;4916039;28;20122;-78
2021/03/05 04:32:15;;;;;;;4.53;1.70;;;;;;;;;;4916945;28;20111;-78
2021/03/05 04:34:38;;;;;;;4.35;1.50;;;-2.10;99.90;;;;;;4912242;28;20107;-77
2021/03/05 04:37:01;;;;;;;3.10;1.35;;;-2.10;99.90;;;;;;4922712;28;20114;-78
2021/03/05 04:39:24;;;;;;;7.97;1.20;;;-2.20;99.90;;;;;;4918308;28;20113;-77
2021/03/05 04:41:47;;;;;;;6.32;1.30;;;-2.40;99.90;;;;;;4918793;28;20096;-78
2021/03/05 04:44:10;;;;;;;5.40;0.93;;;-2.50;99.90;;;;;;4920578;28;20168;-78
2021/03/05 04:46:34;;;;;;;2.88;1.35;;;-2.50;99.90;;;;;;4916950;28;20120;-78
2021/03/05 04:48:56;;;;;;;6.82;1.23;;;-2.30;99.90;;;;;;4916453;28;20090;-77
2021/03/05 04:51:19;;;;;;;4.22;0.95;;;-2.30;99.90;;;;;;4916353;28;20084;-77
2021/03/05 04:53:42;;;;;;;4.75;1.05;;;-2.20;99.90;;;;;;4918729;28;20095;-78
2021/03/05 04:56:05;;;;;;;7.45;1.20;;;-2.10;99.90;;;;;;4920148;28;20104;-78
2021/03/05 04:58:28;;;;;;;4.72;1.17;;;-2.10;99.90;;;;;;4918346;28;20462;-78
2021/03/05 05:00:50;;;;;;;8.10;1.08;;;-2.30;99.90;;;;;;4919553;28;20783;-77
2021/03/05 05:03:14;;;;;;;5.43;1.20;;;-2.50;99.90;;;;;;4915841;28;20098;-77
2021/03/05 05:05:37;;;;;;;6.13;1.00;;;-2.60;99.90;;;;;;4915031;28;20556;-77
2021/03/05 05:08:00;;;;;;;8.23;1.20;;;-2.70;99.90;;;;;;4920354;28;20090;-78
2021/03/05 05:10:24;;;;;;;7.22;1.10;;;-2.70;99.90;;;;;;4918880;28;20433;-77
2021/03/05 05:12:46;;;;;;;3.58;0.98;;;-2.90;99.90;;;;;;4914521;28;20092;-77
2021/03/05 05:15:09;;;;;;;1.88;0.90;;;-2.90;99.90;;;;;;4919360;28;20617;-77
2021/03/05 05:17:32;;;;;;;3.45;0.85;;;-3.00;99.90;;;;;;4919178;28;20094;-78
2021/03/05 05:19:57;;;;;;;2.83;1.15;;;;;;;;;;4916285;28;20103;-78
2021/03/05 05:22:20;;;;;;;3.95;0.95;;;-3.20;99.90;;;;;;4918810;28;20464;-77
2021/03/05 05:24:43;;;;;;;1.75;0.88;;;-3.30;99.90;;;;;;4916885;28;20098;-77
2021/03/05 05:27:07;;;;;;;1.30;0.80;;;-3.30;99.90;;;;;;4915310;28;20088;-78
2021/03/05 05:29:29;;;;;;;1.65;0.60;;;-3.40;99.90;;;;;;4915412;28;20094;-76
2021/03/05 05:31:52;;;;;;;1.00;0.60;;;-3.40;99.90;;;;;;4916646;28;20102;-77
2021/03/05 05:34:15;;;;;;;3.22;0.88;;;-3.40;99.90;;;;;;4920993;28;20440;-78
2021/03/05 05:36:38;;;;;;;2.17;0.80;;;-3.40;99.90;;;;;;4913543;28;20490;-78
2021/03/05 05:39:01;;;;;;;2.75;0.88;;;-3.30;99.90;;;;;;4911718;28;20109;-77
2021/03/05 05:41:25;;;;;;;7.75;1.00;;;-3.10;99.90;;;;;;4916045;28;20103;-77
2021/03/05 05:43:48;;;;;;;2.65;0.95;;;-3.00;99.90;;;;;;4918630;28;20181;-77
2021/03/05 05:46:11;;;;;;;7.03;0.68;;;-2.80;99.90;;;;;;4915977;28;20105;-77
2021/03/05 05:48:35;;;;;;;3.95;0.95;;;-2.70;99.90;;;;;;4914283;28;20510;-77
2021/03/05 05:50:59;;;;;;;1.40;0.68;;;-2.50;99.90;;;;;;4913288;28;20095;-76
2021/03/05 05:53:23;;;;;;;9.25;0.93;;;-2.40;99.90;;;;;;4914505;28;20141;-77
2021/03/05 05:55:47;;;;;;;0.77;0.60;;;-2.40;99.90;;;;;;4917423;28;20452;-77
2021/03/05 05:58:10;;;;;;;0.80;0.60;;;-2.30;99.90;;;;;;4916064;28;20144;-78
2021/03/05 06:00:33;;;;;;;1.45;0.77;;;-2.30;99.90;;;;;;4914341;28;20449;-77
2021/03/05 06:02:56;;;;;;;4.20;0.80;;;-2.20;99.90;;;;;;4914880;28;20089;-76
2021/03/05 06:05:18;;;;;;;3.95;0.70;;;-2.30;99.90;;;;;;4918769;28;20089;-76
2021/03/05 06:07:43;;;;;;;2.25;0.90;;;-2.30;99.90;;;;;;4921154;28;20098;-77
2021/03/05 06:10:11;;;;;;;4.28;0.45;;;-2.40;99.90;;;;;;4916921;28;20446;-77
2021/03/05 06:12:34;;;;;;;3.92;0.90;;;-2.30;99.90;;;;;;4915377;28;20123;-77
2021/03/05 06:14:57;;;;;;;3.67;0.68;;;-2.30;99.90;;;;;;4916544;28;20111;-77
2021/03/05 06:17:20;;;;;;;4.00;0.90;;;-2.30;99.90;;;;;;4916751;28;20092;-77
2021/03/05 06:19:42;;;;;;;2.22;0.50;;;-2.30;99.90;;;;;;4921762;28;20093;-76
2021/03/05 06:22:19;;;;;;;1.00;0.45;;;-2.30;99.90;;;;;;4917702;28;20090;-78
2021/03/05 06:24:43;;;;;;;2.80;0.70;;;-2.10;99.90;;;;;;4912352;27;20091;-78
2021/03/05 06:27:07;;;;;;;8.88;0.60;;;-2.10;99.90;;;;;;4913336;28;20179;-77
2021/03/05 06:29:41;;;;;;;3.67;0.40;;;-2.10;99.90;;;;;;4909813;28;20142;-76
2021/03/05 06:32:06;;;;;;;0.90;0.40;;;-2.00;99.90;;;;;;4914686;27;20097;-77
2021/03/05 06:34:30;;;;;;;9.43;1.02;;;-1.90;99.90;;;;;;4913466;28;20124;-76
2021/03/05 06:37:00;;;;;;;1.73;0.50;;;-1.70;99.90;;;;;;4915639;28;20487;-77
2021/03/05 06:39:26;;;;;;;2.88;0.73;;;-1.60;99.90;;;;;;4911693;28;20553;-77
2021/03/05 06:41:59;;;;;;;4.13;0.57;;;-1.30;99.90;;;;;;4915157;28;20104;-77
2021/03/05 06:44:24;;;;;;;2.58;0.75;;;-1.10;99.90;;;;;;4912823;28;20170;-77
2021/03/05 06:46:46;;;;;;;1.95;0.55;;;-0.80;99.90;;;;;;4910586;28;20188;-77
2021/03/05 06:49:10;;;;;;;7.72;0.80;;;-0.20;99.90;;;;;;4914816;28;20114;-77
2021/03/05 06:51:33;;;;;;;3.60;1.10;;;0.40;99.90;;;;;;4914653;28;20152;-77
2021/03/05 06:54:08;;;;;;;6.13;1.00;;;1.20;99.90;;;;;;4915287;28;20515;-78
2021/03/05 06:56:33;;;;;;;5.72;0.80;;;1.80;99.90;;;;;;4913998;28;20128;-78
2021/03/05 06:59:03;;;;;;;6.67;0.83;;;2.20;99.90;;;;;;4917585;28;20434;-78
2021/03/05 07:01:27;;;;;;;1.83;0.50;;;2.50;99.90;;;;;;4912965;28;20230;-78
2021/03/05 07:04:07;;;;;;;2.10;0.75;;;2.70;99.90;;;;;;4913485;28;20087;-78
2021/03/05 07:06:30;;;;;;;4.68;0.80;;;2.80;99.90;;;;;;4910634;28;20082;-78
2021/03/05 07:08:54;;;;;;;1.00;0.50;;;;;;;;;;4910957;28;20106;-78
2021/03/05 07:11:38;;;;;;;3.33;0.70;;;2.70;99.90;;;;;;4910361;28;20556;-79
2021/03/05 07:14:01;;;;;;;12.02;0.50;;;3.00;99.90;;;;;;4908237;28;20081;-78
2021/03/05 07:16:24;;;;;;;1.83;0.50;;;3.50;99.90;;;;;;4908877;28;20114;-78
2021/03/05 07:18:48;;;;;;;0.60;0.40;;;4.10;99.90;;;;;;4909209;28;20087;-78
2021/03/05 07:21:16;;;;;;;4.65;0.40;;;4.90;99.90;;;;;;4908910;28;20093;-78
2021/03/05 07:23:40;;;;;;;0.43;0.30;;;5.00;99.90;;;;;;4910630;28;20143;-79
2021/03/05 07:26:04;;;;;;;2.40;0.30;;;5.00;99.90;;;;;;4913138;28;20539;-78
2021/03/05 07:28:28;;;;;;;0.52;0.35;;;5.00;99.90;;;;;;4910239;28;20081;-79
2021/03/05 07:30:51;;;;;;;1.88;0.52;;;4.70;99.90;;;;;;4912611;28;20093;-78
2021/03/05 07:33:17;;;;;;;3.15;0.50;;;4.80;99.90;;;;;;4916084;28;20085;-78
2021/03/05 07:35:43;;;;;;;1.95;0.47;;;4.80;99.90;;;;;;4915937;28;20080;-78
2021/03/05 07:38:12;;;;;;;1.63;0.47;;;4.80;99.90;;;;;;4910131;28;20139;-78
2021/03/05 07:40:37;;;;;;;1.98;0.30;;;4.60;99.90;;;;;;4913794;28;20077;-79
2021/03/05 07:43:04;;;;;;;4.30;1.30;;;4.90;99.90;;;;;;4911680;28;20081;-79
2021/03/05 07:45:28;;;;;;;5.00;0.50;;;5.00;99.90;;;;;;4913587;28;20086;-79
2021/03/05 07:47:53;;;;;;;0.95;0.40;;;4.70;99.90;;;;;;4916586;28;20082;-80
2021/03/05 07:50:21;;;;;;;6.65;0.80;;;4.60;99.90;;;;;;4910403;28;20124;-79
2021/03/05 07:52:44;;;;;;;2.58;0.47;;;4.60;99.90;;;;;;4911468;28;20095;-79
2021/03/05 07:55:10;;;;;;;1.95;0.88;;;5.10;99.90;;;;;;4915973;28;20089;-79
2021/03/05 07:57:45;;;;;;;3.65;0.70;;;5.10;99.90;;;;;;4914128;28;20081;-80
2021/03/05 08:00:10;;;;;;;1.52;0.57;;;5.10;99.90;;;;;;4915121;28;20523;-79
2021/03/05 08:02:54;;;;;;;2.50;0.80;;;4.70;99.90;;;;;;4914505;28;20118;-79
2021/03/05 08:05:37;;;;;;;3.50;0.55;;;5.10;99.90;;;;;;4908459;28;20113;-80
2021/03/05 08:08:26;;;;;;;3.15;0.50;;;4.50;99.90;;;;;;4913743;28;20147;-80
2021/03/05 08:10:52;;;;;;;1.80;0.80;;;4.40;99.90;;;;;;4895779;28;20634;-81
2021/03/05 08:13:49;;;;;;;3.88;0.60;;;4.60;99.90;;;;;;4911443;28;20526;-80
2021/03/05 08:16:33;;;;;;;0.88;0.55;;;4.40;99.90;;;;;;4909012;28;20166;-80
2021/03/05 08:19:48;;;;;;;2.65;0.70;;;4.60;99.90;;;;;;4910114;28;20553;-81
2021/03/05 08:22:11;;;;;;;13.32;0.65;;;4.30;99.90;;;;;;4895483;28;22536;-81
2021/03/05 08:24:39;;;;;;;5.47;0.60;;;4.50;99.90;;;;;;4909693;28;20083;-81
2021/03/05 08:27:05;;;;;;;4.88;0.98;;;4.50;99.90;;;;;;4904891;28;20094;-80
2021/03/05 08:29:58;;;;;;;2.92;0.45;;;4.50;99.90;;;;;;4908181;28;20090;-79
2021/03/05 08:32:46;;;;;;;6.03;0.82;;;5.00;99.90;;;;;;4865608;28;20169;-81
2021/03/05 08:35:10;;;;;;;6.35;0.82;;;4.90;99.90;;;;;;4910421;28;20126;-81
2021/03/05 08:37:34;;;;;;;2.40;0.63;;;5.20;99.90;;;;;;4909620;28;20087;-82
2021/03/05 08:40:29;;;;;;;6.97;1.13;;;5.10;99.90;;;;;;4909521;28;20435;-82
2021/03/05 08:42:53;;;;;;;4.43;0.88;;;5.10;99.90;;;;;;4909877;28;20095;-80
2021/03/05 08:45:17;;;;;;;3.80;1.00;;;5.10;99.90;;;;;;4911206;28;20087;-81
2021/03/05 08:47:42;;;;;;;2.10;0.60;;;5.10;99.90;;;;;;4908616;28;20095;-81
2021/03/05 08:50:06;;;;;;;1.50;0.50;;;5.30;99.90;;;;;;4909281;28;20095;-81
2021/03/05 08:52:29;;;;;;;3.17;0.60;;;5.20;99.90;;;;;;4911876;28;20098;-82
2021/03/05 08:54:53;;;;;;;2.72;0.65;;;5.40;99.90;;;;;;4912590;28;20102;-81
2021/03/05 08:57:16;;;;;;;3.33;0.70;;;5.30;99.90;;;;;;4914476;28;20099;-81
2021/03/05 08:59:39;;;;;;;3.00;0.60;;;4.90;99.90;;;;;;4913440;28;20082;-80
2021/03/05 09:02:17;;;;;;;2.35;0.65;;;5.20;99.90;;;;;;4868417;28;20097;-79
2021/03/05 09:04:52;;;;;;;3.72;0.60;;;4.80;99.90;;;;;;4852312;28;20883;-80
2021/03/05 09:07:19;;;;;;;3.53;0.70;;;5.40;99.90;;;;;;4853668;28;20102;-81
2021/03/05 09:09:52;;;;;;;2.05;0.45;;;5.90;99.90;;;;;;4864236;28;20110;-80
2021/03/05 09:12:18;;;;;;;1.17;0.80;;;6.20;99.90;;;;;;4858976;27;20522;-80
2021/03/05 09:15:06;;;;;;;8.93;0.60;;;6.00;99.90;;;;;;4893804;27;20094;-80
2021/03/05 09:17:32;;;;;;;6.55;1.10;;;5.90;99.90;;;;;;4857212;27;20533;-80
2021/03/05 09:20:11;;;;;;;1.27;0.52;;;6.40;99.90;;;;;;4859429;27;20098;-80
2021/03/05 09:22:41;;;;;;;3.33;0.57;;;6.10;99.90;;;;;;4851143;28;20133;-81
2021/03/05 09:25:19;;;;;;;3.25;0.52;;;5.20;99.90;;;;;;4858456;27;20648;-81
2021/03/05 09:31:27;;;;;;;1.13;0.50;;;5.80;99.90;;;;;;4853830;28;20109;-79
2021/03/05 09:34:03;;;;;;;5.22;0.60;;;5.50;99.90;;;;;;4866132;27;20649;-81
2021/03/05 09:37:04;;;;;;;1.25;0.43;;;5.40;99.90;;;;;;4858019;27;20572;-80
2021/03/05 09:39:27;;;;;;;1.88;0.50;;;5.50;99.90;;;;;;4863555;27;20170;-80
2021/03/05 09:42:07;;;;;;;4.95;1.75;;;5.50;99.90;;;;;;4861340;27;20117;-81
2021/03/05 09:44:42;;;;;;;4.07;0.85;;;5.50;99.90;;;;;;4861007;27;20084;-80
2021/03/05 09:47:23;;;;;;;6.22;1.10;;;5.60;99.90;;;;;;4857020;28;20172;-80
2021/03/05 09:50:29;;;;;;;2.72;0.60;;;5.30;99.90;;;;;;4847836;28;20565;-82
2021/03/05 09:53:17;;;;;;;3.58;0.70;;;5.50;99.90;;;;;;4861848;27;20211;-82
2021/03/05 09:56:00;;;;;;;4.32;0.70;;;5.50;99.90;;;;;;4864680;27;20487;-79
2021/03/05 09:59:15;;;;;;;3.38;0.80;;;5.10;99.90;;;;;;4854138;28;20584;-80
2021/03/05 10:15:30;;;;;;;4.40;0.75;;;5.10;99.90;;;;;;4860201;27;20214;-80
2021/03/05 10:21:25;;;;;;;2.25;0.40;;;5.40;99.90;;;;;;4850165;27;20090;-80
2021/03/05 10:24:13;;;;;;;1.52;0.30;;;5.40;99.90;;;;;;4848330;27;20137;-81
2021/03/05 10:33:16;;;;;;;8.45;0.30;;;5.30;99.90;;;;;;4853061;28;20087;-79
2021/03/05 10:36:23;;;;;;;4.13;0.60;;;5.30;99.90;;;;;;4847797;27;20120;-79
2021/03/05 10:42:49;;;;;;;3.20;0.40;;;5.40;99.90;;;;;;4850544;28;20089;-80
2021/03/05 10:45:48;;;;;;;4.22;0.47;;;5.40;99.90;;;;;;4851633;28;20087;-79
2021/03/05 10:48:44;;;;;;;1.95;0.40;;;5.40;99.90;;;;;;4842732;28;20099;-80
2021/03/05 10:51:10;;;;;;;1.88;0.32;;;5.40;99.90;;;;;;4871102;28;20777;-76
2021/03/05 10:53:33;;;;;;;0.70;0.40;;;5.50;99.90;;;;;;4908607;28;20090;-76
2021/03/05 10:55:56;;;;;;;0.95;0.30;;;5.60;99.90;;;;;;4911513;28;20090;-78
2021/03/05 10:58:20;;;;;;;4.80;0.43;;;5.40;99.90;;;;;;4916013;28;20621;-79
2021/03/05 11:00:42;;;;;;;0.88;0.32;;;5.50;99.90;;;;;;4911681;28;20203;-79
2021/03/05 11:03:06;;;;;;;1.90;0.10;;;5.50;99.90;;;;;;4916159;28;20113;-78
2021/03/05 11:05:28;;;;;;;1.48;0.30;;;5.60;99.90;;;;;;4915260;28;20570;-78
2021/03/05 11:07:52;;;;;;;3.33;0.52;;;5.60;99.90;;;;;;4915292;28;20083;-80
2021/03/05 11:10:15;;;;;;;2.17;0.38;;;5.60;99.90;;;;;;4912609;28;20089;-78
2021/03/05 11:12:38;;;;;;;4.78;0.40;;;5.60;99.90;;;;;;4909161;27;20099;-77
2021/03/05 11:15:03;;;;;;;0.68;0.30;;;5.60;99.90;;;;;;4917449;28;20087;-78
2021/03/05 11:17:26;;;;;;;;;;;5.60;99.90;;;;;;4912420;27;20095;-79
2021/03/05 11:19:49;;;;;;;0.50;0.20;;;5.70;99.90;;;;;;4917294;28;19963;-79
2021/03/05 11:22:11;;;;;;;4.03;0.28;;;5.70;99.90;;;;;;4914576;28;20087;-78
2021/03/05 11:24:34;;;;;;;1.02;0.30;;;5.90;99.90;;;;;;4909801;28;20094;-79
2021/03/05 11:26:56;;;;;;;1.55;0.45;;;5.90;99.90;;;;;;4916288;28;20101;-78
2021/03/05 11:29:19;;;;;;;1.48;0.30;;;5.90;99.90;;;;;;4913873;28;20079;-79
2021/03/05 11:31:44;;;;;;;1.25;0.10;;;5.70;99.90;;;;;;4915667;28;20087;-79
2021/03/05 11:34:07;;;;;;;1.55;0.40;;;5.90;99.90;;;;;;4916367;28;20766;-78
2021/03/05 11:36:31;;;;;;;3.60;0.30;;;5.80;99.90;;;;;;4911914;28;20091;-79
2021/03/05 11:38:54;;;;;;;7.60;0.47;;;5.80;99.90;;;;;;4913989;28;20094;-78
2021/03/05 11:41:19;;;;;;;5.20;0.50;;;6.00;99.90;;;;;;4916319;28;20427;-78
2021/03/05 11:43:43;;;;;;;0.93;0.20;;;5.90;99.90;;;;;;4913609;28;20095;-78
2021/03/05 11:46:06;;;;;;;3.50;0.40;;;5.90;99.90;;;;;;4911280;28;20099;-78
2021/03/05 11:48:30;;;;;;;0.30;0.13;;;6.10;99.90;;;;;;4914207;28;20091;-78
2021/03/05 11:50:53;;;;;;;1.42;0.10;;;5.90;99.90;;;;;;4911332;28;20090;-78
2021/03/05 11:53:15;;;;;;;0.52;0.10;;;5.90;99.90;;;;;;4914788;28;20082;-78
2021/03/05 11:55:38;;;;;;;1.95;0.30;;;5.90;99.90;;;;;;4912735;28;20106;-78
2021/03/05 11:58:01;;;;;;;0.55;0.10;;;5.80;99.90;;;;;;4909852;28;20090;-77
2021/03/05 12:00:24;;;;;;;5.18;0.28;;;5.90;99.90;;;;;;4911877;28;20085;-78
2021/03/05 12:02:47;;;;;;;1.08;0.20;;;5.90;99.90;;;;;;4912434;27;20561;-78
2021/03/05 12:05:13;;;;;;;2.55;0.10;;;5.70;99.90;;;;;;4910766;28;20454;-78
2021/03/05 12:07:36;;;;;;;1.55;0.40;;;5.80;99.90;;;;;;4914293;28;20089;-77
2021/03/05 12:09:59;;;;;;;1.20;0.32;;;5.80;99.90;;;;;;4914365;28;20106;-79
2021/03/05 12:12:21;;;;;;;0.73;0.20;;;5.80;99.90;;;;;;4913997;28;20157;-77
2021/03/05 12:14:44;;;;;;;4.00;0.30;;;5.80;99.90;;;;;;4914357;28;20570;-79
2021/03/05 12:17:07;;;;;;;1.00;0.20;;;5.90;99.90;;;;;;4917445;28;20090;-80
2021/03/05 12:19:30;;;;;;;1.98;0.22;;;5.80;99.90;;;;;;4915118;28;20095;-79
2021/03/05 12:21:53;;;;;;;2.38;0.10;;;5.70;99.90;;;;;;4908917;28;20086;-78
2021/03/05 12:24:16;;;;;;;0.57;0.20;;;5.70;99.90;;;;;;4912946;28;20184;-77
2021/03/05 12:26:39;;;;;;;1.50;0.30;;;5.80;99.90;;;;;;4914512;28;20105;-79
2021/03/05 12:29:01;;;;;;;1.70;0.38;;;5.80;99.90;;;;;;4915659;28;20083;-79
2021/03/05 12:31:24;;;;;;;3.90;0.45;;;5.70;99.90;;;;;;4916661;28;20093;-79
2021/03/05 12:33:49;;;;;;;2.45;0.30;;;5.90;99.90;;;;;;4910829;28;20149;-78
2021/03/05 12:36:12;;;;;;;2.00;0.55;;;5.80;99.90;;;;;;4918143;28;20093;-79
2021/03/05 12:38:35;;;;;;;4.13;0.70;;;5.90;99.90;;;;;;4914253;28;20090;-79
2021/03/05 12:40:59;;;;;;;0.57;0.38;;;6.00;99.90;;;;;;4916140;28;20136;-79
2021/03/05 12:43:21;;;;;;;1.25;0.30;;;6.00;99.90;;;;;;4913338;28;20089;-79
2021/03/05 12:45:44;;;;;;;3.35;0.40;;;5.90;99.90;;;;;;4915592;28;20083;-78
2021/03/05 12:48:08;;;;;;;0.43;0.30;;;5.70;99.90;;;;;;4916130;28;20503;-79
2021/03/05 12:50:31;;;;;;;1.75;0.43;;;5.80;99.90;;;;;;4913410;28;20090;-79
2021/03/05 12:52:53;;;;;;;2.05;0.43;;;5.90;99.90;;;;;;4918957;28;20545;-79
2021/03/05 12:55:17;;;;;;;4.55;0.73;;;5.90;99.90;;;;;;4916647;28;20561;-77
2021/03/05 12:57:41;;;;;;;1.85;0.50;;;5.70;99.90;;;;;;4915059;28;20098;-77
2021/03/05 13:00:06;;;;;;;1.45;0.30;;;5.80;99.90;;;;;;4913069;28;20236;-78
2021/03/05 13:02:28;;;;;;;0.97;0.60;;;5.80;99.90;;;;;;4915556;28;20086;-78
2021/03/05 13:04:51;;;;;;;2.60;0.77;;;5.80;99.90;;;;;;4919227;28;20502;-79
2021/03/05 13:07:14;;;;;;;1.70;0.60;;;5.80;99.90;;;;;;4919078;28;20086;-78
2021/03/05 13:09:36;;;;;;;1.05;0.60;;;5.80;99.90;;;;;;4916698;28;20136;-81
2021/03/05 13:12:00;;;;;;;1.58;0.70;;;;;;;;;;4913975;28;20094;-79
2021/03/05 13:14:23;;;;;;;1.00;0.65;;;5.70;99.90;;;;;;4917578;28;20117;-78
2021/03/05 13:16:46;;;;;;;1.20;0.63;;;5.90;99.90;;;;;;4922138;28;20541;-79
2021/03/05 13:19:08;;;;;;;2.38;0.60;;;5.70;99.90;;;;;;4915266;28;20102;-78
2021/03/05 13:21:32;;;;;;;1.17;0.40;;;5.70;99.90;;;;;;4915605;27;20170;-77